Time;durP1;ratioP1;P1;durP2;ratioP2;P2;SDS_P1;SDS_P2;PMS_P1;PMS_P2;Temp;Humidity;BMP_temperature;BMP_pressure;BME280_temperature;BME280_humidity;BME280_pressure;Samples;Min_cycle;Max_cycle;Signal;HPM_P1;HPM_P2
2022/04/17 00:01:03;;;;;;;9.88;5.32;;;8.50;68.80;;;;;;5062278;28;38232;-59
2022/04/17 00:03:31;;;;;;;8.45;5.22;;;8.50;69.20;;;;;;5063086;28;38849;-59
2022/04/17 00:06:02;;;;;;;8.95;4.88;;;8.40;69.20;;;;;;5063952;28;39111;-59
2022/04/17 00:08:30;;;;;;;8.68;4.60;;;8.40;69.20;;;;;;5061763;28;37866;-59
2022/04/17 00:10:57;;;;;;;7.47;4.70;;;8.40;69.40;;;;;;5061869;28;39003;-60
2022/04/17 00:13:27;;;;;;;7.63;4.47;;;8.40;69.70;;;;;;5058783;28;38807;-59
2022/04/17 00:15:56;;;;;;;9.52;4.47;;;8.40;69.50;;;;;;5065283;28;37256;-59
2022/04/17 00:18:23;;;;;;;9.80;4.35;;;8.40;69.30;;;;;;5064961;28;36376;-59
2022/04/17 00:20:51;;;;;;;10.40;4.63;;;8.40;68.80;;;;;;5065422;28;38644;-59
2022/04/17 00:23:18;;;;;;;8.77;4.15;;;8.30;68.30;;;;;;5065951;28;38032;-59
2022/04/17 00:25:45;;;;;;;7.38;4.10;;;8.30;68.30;;;;;;5065516;28;37747;-59
2022/04/17 00:28:13;;;;;;;7.13;4.25;;;8.30;68.50;;;;;;5063194;28;36920;-59
2022/04/17 00:30:40;;;;;;;8.57;4.18;;;8.30;68.10;;;;;;5063996;28;36323;-59
2022/04/17 00:33:14;;;;;;;7.47;4.40;;;8.30;67.90;;;;;;5064689;28;38202;-58
2022/04/17 00:35:43;;;;;;;;;;;8.30;67.70;;;;;;5065052;28;38675;-59
2022/04/17 00:38:11;;;;;;;7.85;3.85;;;8.30;66.60;;;;;;5064643;28;37089;-60
2022/04/17 00:40:39;;;;;;;6.80;3.10;;;8.30;66.70;;;;;;5065038;28;37623;-59
2022/04/17 00:43:22;;;;;;;6.38;3.35;;;8.40;66.50;;;;;;5065189;28;37716;-59
2022/04/17 00:45:51;;;;;;;6.90;3.70;;;8.40;66.20;;;;;;5065432;28;38071;-59
2022/04/17 00:48:20;;;;;;;6.78;4.15;;;8.40;67.90;;;;;;5066202;28;36683;-59
2022/04/17 00:50:49;;;;;;;8.88;4.22;;;8.40;69.50;;;;;;5065489;28;39545;-59
2022/04/17 00:53:18;;;;;;;9.98;4.30;;;8.30;70.90;;;;;;5065088;28;38573;-59
2022/04/17 00:55:47;;;;;;;6.47;3.80;;;8.20;71.70;;;;;;5063991;28;38852;-59
2022/04/17 00:58:18;;;;;;;6.68;4.13;;;8.10;72.60;;;;;;5064049;28;35286;-59
2022/04/17 01:00:45;;;;;;;7.07;4.00;;;8.00;73.90;;;;;;5064493;28;37136;-59
2022/04/17 01:03:17;;;;;;;7.25;3.22;;;8.00;74.30;;;;;;5063742;28;39142;-59
2022/04/17 01:05:46;;;;;;;8.13;4.10;;;8.00;74.00;;;;;;5064531;28;39014;-59
2022/04/17 01:08:15;;;;;;;10.30;4.30;;;8.00;73.00;;;;;;5064171;28;37241;-59
2022/04/17 01:10:42;;;;;;;9.30;4.35;;;8.00;71.90;;;;;;5065212;28;38425;-59
2022/04/17 01:13:09;;;;;;;6.47;3.47;;;8.00;73.10;;;;;;5063633;28;38123;-59
2022/04/17 01:15:43;;;;;;;6.82;4.20;;;8.00;74.00;;;;;;5064059;28;36577;-59
2022/04/17 01:18:11;;;;;;;6.75;3.90;;;8.00;74.30;;;;;;5064186;28;37524;-59
2022/04/17 01:20:40;;;;;;;10.70;4.07;;;7.90;72.80;;;;;;5064738;28;37646;-59
2022/04/17 01:28:43;;;;;;;9.88;4.35;;;8.00;73.10;;;;;;5064716;28;38196;-59
2022/04/17 01:31:11;;;;;;;8.32;4.28;;;7.90;74.10;;;;;;5063390;28;37462;-59
2022/04/17 01:33:38;;;;;;;8.13;4.38;;;7.90;73.70;;;;;;5063466;28;38404;-59
2022/04/17 01:36:05;;;;;;;7.00;4.28;;;7.90;74.00;;;;;;5063227;28;38210;-59
2022/04/17 01:38:34;;;;;;;9.98;4.38;;;7.90;74.80;;;;;;5063260;28;36277;-59
2022/04/17 01:41:01;;;;;;;6.50;3.55;;;7.90;75.60;;;;;;5064157;28;36466;-59
2022/04/17 01:43:28;;;;;;;7.15;4.03;;;7.80;76.10;;;;;;5063771;28;39235;-59
2022/04/17 01:45:56;;;;;;;7.95;4.35;;;7.80;76.00;;;;;;5063684;28;36724;-59
2022/04/17 01:48:23;;;;;;;8.38;4.18;;;7.80;76.10;;;;;;5062905;28;35859;-59
2022/04/17 01:50:50;;;;;;;8.27;4.20;;;7.90;75.80;;;;;;5062855;28;37601;-59
2022/04/17 01:53:20;;;;;;;10.52;4.03;;;7.90;74.70;;;;;;5063128;28;37921;-59
2022/04/17 01:55:49;;;;;;;9.20;4.05;;;7.90;73.80;;;;;;5063845;28;38895;-59
2022/04/17 01:58:16;;;;;;;7.75;4.20;;;7.90;73.50;;;;;;5063463;28;37386;-59
2022/04/17 02:00:43;;;;;;;6.85;4.15;;;7.90;73.10;;;;;;5064313;28;36494;-59
2022/04/17 02:03:11;;;;;;;7.70;4.45;;;7.90;73.60;;;;;;5062996;28;37571;-59
2022/04/17 02:05:38;;;;;;;8.18;4.78;;;7.90;73.80;;;;;;5061919;28;37981;-59
2022/04/17 02:08:06;;;;;;;6.70;4.25;;;7.90;73.80;;;;;;5062528;28;35349;-59
2022/04/17 02:10:34;;;;;;;9.77;4.55;;;7.90;73.90;;;;;;5061301;28;37480;-59
2022/04/17 02:13:03;;;;;;;12.52;4.38;;;7.80;74.00;;;;;;5063078;28;38364;-59
2022/04/17 02:15:31;;;;;;;8.38;4.50;;;7.80;74.40;;;;;;5063927;28;38114;-59
2022/04/17 02:17:58;;;;;;;9.38;4.93;;;7.80;74.40;;;;;;5062906;28;37262;-59
2022/04/17 02:20:26;;;;;;;8.50;5.13;;;7.80;74.90;;;;;;5063376;28;37442;-60
2022/04/17 02:22:57;;;;;;;7.40;4.22;;;7.80;75.00;;;;;;5063452;28;37909;-59
2022/04/17 02:25:24;;;;;;;9.32;4.43;;;7.80;75.50;;;;;;5063339;28;39102;-58
2022/04/17 02:27:54;;;;;;;7.47;4.57;;;7.80;76.00;;;;;;5062293;28;37321;-59
2022/04/17 02:30:23;;;;;;;8.48;4.20;;;7.70;76.30;;;;;;5062899;28;37111;-59
2022/04/17 02:32:50;;;;;;;8.48;4.72;;;7.70;76.80;;;;;;5062146;28;39628;-59
2022/04/17 02:35:18;;;;;;;8.40;4.85;;;7.70;77.10;;;;;;5062504;28;37811;-59
2022/04/17 02:37:45;;;;;;;8.77;4.53;;;7.70;77.70;;;;;;5061744;28;35354;-59
2022/04/17 02:40:13;;;;;;;8.27;5.20;;;7.70;78.30;;;;;;5062441;28;37841;-59
2022/04/17 02:42:40;;;;;;;9.35;4.97;;;7.70;78.50;;;;;;5062728;28;38221;-60
2022/04/17 02:45:08;;;;;;;12.23;4.88;;;7.60;79.00;;;;;;5061517;28;38303;-59
2022/04/17 02:47:47;;;;;;;9.10;5.03;;;7.60;78.90;;;;;;5062646;28;35526;-59
2022/04/17 02:50:17;;;;;;;8.52;4.65;;;7.60;79.20;;;;;;5061720;28;37666;-58
2022/04/17 02:52:45;;;;;;;10.77;5.03;;;7.60;79.30;;;;;;5061323;28;38885;-59
2022/04/17 02:55:15;;;;;;;11.45;5.20;;;7.50;79.10;;;;;;5061815;28;38519;-60
2022/04/17 02:57:45;;;;;;;9.38;4.70;;;7.60;79.30;;;;;;5061093;28;36517;-59
2022/04/17 03:00:13;;;;;;;9.48;5.20;;;7.50;79.10;;;;;;5062716;28;37159;-59
2022/04/17 03:05:37;;;;;;;10.13;5.22;;;7.50;78.60;;;;;;5062007;28;38814;-59
2022/04/17 03:08:06;;;;;;;8.73;4.55;;;7.40;78.70;;;;;;5062625;28;36497;-59
2022/04/17 03:10:36;;;;;;;9.93;5.38;;;7.30;78.40;;;;;;5062330;28;37158;-59
2022/04/17 03:13:04;;;;;;;8.13;4.82;;;7.40;78.60;;;;;;5060558;28;37044;-59
2022/04/17 03:15:31;;;;;;;8.20;4.63;;;7.40;78.30;;;;;;5061035;28;36810;-59
2022/04/17 03:18:00;;;;;;;10.25;4.95;;;7.30;78.10;;;;;;5062047;28;36620;-59
2022/04/17 03:20:30;;;;;;;10.98;5.47;;;7.30;77.80;;;;;;5062856;28;39634;-59
2022/04/17 03:22:58;;;;;;;10.60;5.35;;;7.30;78.10;;;;;;5061996;28;39128;-59
2022/04/17 03:25:25;;;;;;;8.50;4.82;;;7.20;78.00;;;;;;5062650;28;40016;-59
2022/04/17 03:27:57;;;;;;;7.78;4.95;;;7.10;78.30;;;;;;5061176;28;36592;-59
2022/04/17 03:30:25;;;;;;;8.90;4.97;;;7.10;78.70;;;;;;5061963;28;39325;-59
2022/04/17 03:32:52;;;;;;;10.85;5.63;;;7.10;79.00;;;;;;5061781;28;39420;-59
2022/04/17 03:35:21;;;;;;;10.90;5.60;;;7.00;79.30;;;;;;5062018;28;37672;-59
2022/04/17 03:37:49;;;;;;;8.98;5.13;;;7.00;79.60;;;;;;5061495;28;36640;-59
2022/04/17 03:40:17;;;;;;;9.10;5.03;;;7.00;79.50;;;;;;5061527;28;36357;-59
2022/04/17 03:42:47;;;;;;;8.65;5.45;;;6.90;79.60;;;;;;5061411;28;36823;-59
2022/04/17 03:45:17;;;;;;;9.48;5.28;;;6.90;79.50;;;;;;5060475;28;37672;-59
2022/04/17 03:47:44;;;;;;;9.27;5.43;;;6.80;79.60;;;;;;5059230;28;36281;-59
2022/04/17 03:50:15;;;;;;;12.63;6.20;;;6.70;79.90;;;;;;5064737;28;38364;-59
2022/04/17 03:52:45;;;;;;;8.45;5.40;;;6.60;80.20;;;;;;5065065;28;39623;-59
2022/04/17 03:55:15;;;;;;;11.13;5.70;;;6.60;80.40;;;;;;5065211;28;37861;-59
2022/04/17 03:57:43;;;;;;;10.88;5.90;;;6.50;80.70;;;;;;5063968;28;37840;-59
2022/04/17 04:00:13;;;;;;;10.88;5.78;;;6.50;80.90;;;;;;5065148;28;36518;-59
2022/04/17 04:02:41;;;;;;;9.25;6.15;;;6.50;81.20;;;;;;5064339;28;38942;-59
2022/04/17 04:05:12;;;;;;;9.93;5.38;;;6.50;81.20;;;;;;5064303;28;38444;-59
2022/04/17 04:07:40;;;;;;;10.00;5.47;;;6.40;81.50;;;;;;5064758;28;37393;-59
2022/04/17 04:10:10;;;;;;;10.20;6.00;;;6.40;81.30;;;;;;5064804;28;37675;-59
2022/04/17 04:12:38;;;;;;;12.20;6.85;;;6.30;81.60;;;;;;5064687;28;38829;-59
2022/04/17 04:15:07;;;;;;;12.25;6.35;;;6.50;81.80;;;;;;5064107;28;37773;-60
2022/04/17 04:17:34;;;;;;;9.70;5.53;;;6.20;82.20;;;;;;5064071;28;37305;-59
2022/04/17 04:20:02;;;;;;;11.40;6.13;;;6.20;82.70;;;;;;5064251;28;37615;-59
2022/04/17 04:22:30;;;;;;;10.00;6.05;;;6.20;83.30;;;;;;5064227;28;38341;-59
2022/04/17 04:24:57;;;;;;;9.52;6.65;;;6.20;83.60;;;;;;5065006;28;37348;-59
2022/04/17 04:30:12;;;;;;;10.68;6.47;;;6.20;84.10;;;;;;5064571;28;38626;-59
2022/04/17 04:32:52;;;;;;;9.02;5.47;;;6.20;84.10;;;;;;5063785;28;38282;-59
2022/04/17 04:35:20;;;;;;;11.32;6.45;;;6.30;84.40;;;;;;5065104;28;36939;-59
2022/04/17 04:37:47;;;;;;;9.98;5.95;;;6.30;84.90;;;;;;5064898;28;35476;-59
2022/04/17 04:40:16;;;;;;;12.02;6.20;;;6.30;85.00;;;;;;5064796;28;38222;-59
2022/04/17 04:42:44;;;;;;;8.82;5.68;;;6.40;85.00;;;;;;5065201;28;37197;-59
2022/04/17 04:47:57;;;;;;;10.05;5.90;;;6.50;85.20;;;;;;5065528;28;37339;-59
2022/04/17 04:50:23;;;;;;;13.07;6.72;;;6.50;85.30;;;;;;5064669;28;37663;-59
2022/04/17 04:52:51;;;;;;;10.65;6.78;;;6.50;85.30;;;;;;5064286;28;37780;-59
2022/04/17 04:55:21;;;;;;;10.38;6.47;;;6.60;85.40;;;;;;5064300;28;39111;-59
2022/04/17 04:57:55;;;;;;;9.35;6.22;;;6.60;85.40;;;;;;5063527;28;38221;-59
2022/04/17 05:00:23;;;;;;;9.27;5.97;;;6.60;85.70;;;;;;5063069;28;38365;-58
2022/04/17 05:02:51;;;;;;;8.90;6.05;;;6.60;85.50;;;;;;5064369;28;37072;-59
2022/04/17 05:05:21;;;;;;;12.00;6.60;;;6.70;85.30;;;;;;5064353;28;40885;-59
2022/04/17 05:07:49;;;;;;;12.25;6.57;;;6.70;85.30;;;;;;5064074;28;36892;-59
2022/04/17 05:10:16;;;;;;;9.68;6.63;;;6.80;85.20;;;;;;5064601;28;38237;-59
2022/04/17 05:12:43;;;;;;;11.35;6.68;;;6.90;85.20;;;;;;5063980;28;39158;-59
2022/04/17 05:15:12;;;;;;;10.90;6.57;;;7.00;85.20;;;;;;5063164;28;37576;-59
2022/04/17 05:17:39;;;;;;;10.32;6.40;;;7.20;84.80;;;;;;5064699;28;37040;-59
2022/04/17 05:20:09;;;;;;;9.90;6.40;;;7.40;84.20;;;;;;5064693;28;36245;-59
2022/04/17 05:22:36;;;;;;;10.23;6.90;;;7.60;83.20;;;;;;5063371;28;38313;-58
2022/04/17 05:25:04;;;;;;;10.18;6.35;;;8.00;82.90;;;;;;5063828;28;37555;-59
2022/04/17 05:27:31;;;;;;;10.85;6.65;;;8.30;81.70;;;;;;5063039;28;36807;-59
2022/04/17 05:29:59;;;;;;;10.45;6.25;;;8.60;80.00;;;;;;5063442;28;39017;-59
2022/04/17 05:32:30;;;;;;;11.43;6.93;;;9.10;77.90;;;;;;5063974;28;36979;-59
2022/04/17 05:34:58;;;;;;;12.65;6.57;;;9.60;75.70;;;;;;5063759;28;37512;-59
2022/04/17 05:37:29;;;;;;;11.48;7.13;;;10.20;73.20;;;;;;5063549;28;37736;-59
2022/04/17 05:39:56;;;;;;;13.20;7.07;;;10.70;71.70;;;;;;5063569;28;39423;-59
2022/04/17 05:42:23;;;;;;;10.75;6.15;;;10.90;69.70;;;;;;5064661;28;36929;-59
2022/04/17 05:44:53;;;;;;;10.82;6.60;;;11.00;69.10;;;;;;5062010;28;38171;-59
2022/04/17 05:47:27;;;;;;;10.38;6.60;;;11.10;68.20;;;;;;5063769;28;38227;-59
2022/04/17 05:49:56;;;;;;;12.07;7.05;;;11.20;68.20;;;;;;5063402;28;37344;-59
2022/04/17 05:52:23;;;;;;;10.43;6.53;;;11.40;67.60;;;;;;5064115;28;39029;-59
2022/04/17 05:54:52;;;;;;;11.75;6.70;;;11.60;66.80;;;;;;5063642;28;37904;-59
2022/04/17 05:57:19;;;;;;;11.63;7.22;;;12.00;65.50;;;;;;5062857;28;37309;-59
2022/04/17 05:59:47;;;;;;;11.73;7.00;;;12.40;64.30;;;;;;5063208;28;37502;-59
2022/04/17 06:02:15;;;;;;;11.35;7.22;;;12.50;63.80;;;;;;5062762;28;38829;-59
2022/04/17 06:04:47;;;;;;;12.05;7.38;;;12.50;63.70;;;;;;5063695;28;37696;-59
2022/04/17 06:07:25;;;;;;;13.05;7.60;;;12.60;62.90;;;;;;5063170;28;36518;-59
2022/04/17 06:09:53;;;;;;;12.57;7.20;;;13.00;61.00;;;;;;5063547;28;37711;-59
2022/04/17 06:12:21;;;;;;;12.27;7.35;;;13.50;60.30;;;;;;5062323;28;38708;-59
2022/04/17 06:14:48;;;;;;;11.15;7.15;;;14.00;58.30;;;;;;5062990;28;37913;-59
2022/04/17 06:17:15;;;;;;;12.95;6.78;;;14.70;56.40;;;;;;5063162;28;37509;-59
2022/04/17 06:19:43;;;;;;;10.68;6.13;;;15.40;54.70;;;;;;5063384;28;39040;-59
2022/04/17 06:22:11;;;;;;;10.40;7.15;;;15.80;53.00;;;;;;5063211;28;38179;-58
2022/04/17 06:24:40;;;;;;;10.20;6.30;;;15.80;52.00;;;;;;5062916;28;38265;-59
2022/04/17 06:27:07;;;;;;;10.50;6.47;;;15.60;51.00;;;;;;5063326;28;37304;-59
2022/04/17 06:29:35;;;;;;;11.50;6.85;;;16.00;50.40;;;;;;5063605;28;38743;-59
2022/04/17 06:32:03;;;;;;;11.23;6.95;;;15.90;49.60;;;;;;5063318;28;37522;-59
2022/04/17 06:34:30;;;;;;;11.43;6.75;;;15.60;49.60;;;;;;5062051;28;39466;-59
2022/04/17 06:36:58;;;;;;;11.25;6.35;;;15.20;49.70;;;;;;5061976;28;38647;-59
2022/04/17 06:39:25;;;;;;;10.13;6.63;;;15.00;50.70;;;;;;5061738;28;38413;-60
2022/04/17 06:41:54;;;;;;;8.75;6.10;;;14.90;50.80;;;;;;5062870;28;40757;-59
2022/04/17 06:44:24;;;;;;;12.15;6.60;;;14.60;50.20;;;;;;5062317;28;38614;-60
2022/04/17 06:46:52;;;;;;;10.13;5.93;;;14.40;50.70;;;;;;5062285;28;36282;-60
2022/04/17 06:49:22;;;;;;;9.27;6.13;;;14.10;51.80;;;;;;5062422;28;39003;-59
2022/04/17 06:51:49;;;;;;;11.10;7.05;;;14.00;51.90;;;;;;5063074;28;37811;-59
2022/04/17 06:54:17;;;;;;;16.02;7.63;;;13.90;52.30;;;;;;5062569;28;37699;-59
2022/04/17 06:56:44;;;;;;;12.93;6.78;;;13.90;52.50;;;;;;5062655;28;36888;-59
2022/04/17 06:59:13;;;;;;;11.30;6.60;;;13.90;52.30;;;;;;5062134;28;37961;-59
2022/04/17 07:01:44;;;;;;;13.68;7.22;;;13.80;51.80;;;;;;5062365;28;37651;-59
2022/04/17 07:04:11;;;;;;;12.57;6.07;;;13.80;51.50;;;;;;5061562;28;39522;-59
2022/04/17 07:06:44;;;;;;;11.98;6.53;;;13.80;51.80;;;;;;5062061;28;35381;-60
2022/04/17 07:09:11;;;;;;;10.53;7.03;;;13.60;51.60;;;;;;5062125;28;38508;-59
2022/04/17 07:11:39;;;;;;;11.35;7.28;;;13.70;51.90;;;;;;5063163;28;37962;-59
2022/04/17 07:14:06;;;;;;;10.43;6.03;;;13.60;52.30;;;;;;5061708;28;37271;-59
2022/04/17 07:16:35;;;;;;;11.00;6.60;;;13.70;52.00;;;;;;5061914;28;37134;-60
2022/04/17 07:19:03;;;;;;;14.05;7.43;;;13.70;51.90;;;;;;5062121;28;37466;-59
2022/04/17 07:21:30;;;;;;;11.27;7.10;;;13.80;51.60;;;;;;5061670;28;38300;-59
2022/04/17 07:23:58;;;;;;;11.38;6.60;;;14.00;51.60;;;;;;5064805;28;36627;-60
2022/04/17 07:26:26;;;;;;;9.65;6.68;;;14.00;50.90;;;;;;5065815;28;36229;-60
2022/04/17 07:28:56;;;;;;;10.05;6.28;;;14.00;51.60;;;;;;5066493;28;39723;-59
2022/04/17 07:31:26;;;;;;;10.95;6.97;;;14.00;52.10;;;;;;5065653;28;37968;-59
2022/04/17 07:33:54;;;;;;;10.93;7.00;;;14.00;51.60;;;;;;5064872;28;38391;-59
2022/04/17 07:36:22;;;;;;;10.40;6.68;;;14.10;51.90;;;;;;5065558;28;36330;-59
2022/04/17 07:38:49;;;;;;;9.68;5.97;;;14.10;51.70;;;;;;5065773;28;37827;-59
2022/04/17 07:41:17;;;;;;;10.70;6.80;;;14.20;52.20;;;;;;5064080;28;39954;-60
2022/04/17 07:43:44;;;;;;;11.57;7.13;;;14.40;51.10;;;;;;5064430;28;38717;-59
2022/04/17 07:46:12;;;;;;;10.23;6.55;;;14.60;50.80;;;;;;5066298;28;36332;-60
2022/04/17 07:48:40;;;;;;;11.57;6.55;;;15.00;50.10;;;;;;5066237;28;38463;-60
2022/04/17 07:51:08;;;;;;;10.07;5.88;;;15.50;47.90;;;;;;5064593;28;39013;-59
2022/04/17 07:53:36;;;;;;;10.88;6.93;;;16.10;46.10;;;;;;5064825;28;37846;-60
2022/04/17 07:56:05;;;;;;;9.90;5.68;;;16.60;44.90;;;;;;5064873;28;37139;-59
2022/04/17 07:58:35;;;;;;;10.38;6.35;;;16.80;44.90;;;;;;5065427;28;37588;-59
2022/04/17 08:01:10;;;;;;;10.43;6.25;;;16.60;44.70;;;;;;5065296;28;36982;-59
2022/04/17 08:03:46;;;;;;;10.35;6.07;;;16.40;45.10;;;;;;5065393;28;37963;-59
2022/04/17 08:06:20;;;;;;;9.65;5.90;;;16.10;45.10;;;;;;5066002;28;35057;-59
2022/04/17 08:08:51;;;;;;;8.75;5.85;;;16.00;45.00;;;;;;5066006;28;37733;-60
2022/04/17 08:11:20;;;;;;;9.23;6.10;;;15.90;44.90;;;;;;5064533;28;39490;-59
2022/04/17 08:13:48;;;;;;;10.27;6.35;;;16.00;45.10;;;;;;5064842;28;38095;-59
2022/04/17 08:16:19;;;;;;;9.85;6.32;;;16.00;45.20;;;;;;5064457;28;37591;-59
2022/04/17 08:18:46;;;;;;;12.52;6.35;;;16.00;45.50;;;;;;5065256;28;37438;-59
2022/04/17 08:21:16;;;;;;;8.73;5.57;;;15.90;45.40;;;;;;5065251;28;39588;-60
2022/04/17 08:23:43;;;;;;;11.35;6.13;;;16.00;44.60;;;;;;5065156;28;38346;-59
2022/04/17 08:26:10;;;;;;;9.73;6.13;;;16.00;44.10;;;;;;5065551;28;37014;-60
2022/04/17 08:28:38;;;;;;;11.45;6.80;;;16.10;45.00;;;;;;5065122;28;37516;-59
2022/04/17 08:31:06;;;;;;;10.73;5.80;;;16.20;44.30;;;;;;5064530;28;36934;-59
2022/04/17 08:33:33;;;;;;;11.80;5.97;;;16.30;43.90;;;;;;5065475;28;38685;-59
2022/04/17 08:36:01;;;;;;;9.95;5.72;;;16.30;43.40;;;;;;5064142;28;37318;-59
2022/04/17 08:38:29;;;;;;;9.23;5.50;;;16.20;43.80;;;;;;5065129;28;37361;-59
2022/04/17 08:40:59;;;;;;;11.05;6.32;;;16.30;44.00;;;;;;5061844;28;38316;-59
2022/04/17 08:43:27;;;;;;;9.30;5.93;;;16.40;43.30;;;;;;5062441;28;37629;-59
2022/04/17 08:45:55;;;;;;;9.00;6.00;;;16.60;43.10;;;;;;5063344;28;36398;-59
2022/04/17 08:48:23;;;;;;;9.85;5.65;;;16.70;43.20;;;;;;5063445;28;38308;-59
2022/04/17 08:50:54;;;;;;;9.02;5.53;;;16.80;43.60;;;;;;5063040;28;38969;-59
2022/04/17 08:53:22;;;;;;;10.35;5.30;;;16.70;42.30;;;;;;5063617;28;38217;-60
2022/04/17 08:55:54;;;;;;;12.45;6.25;;;16.80;42.40;;;;;;5063666;28;37238;-59
2022/04/17 08:58:22;;;;;;;10.73;6.35;;;16.90;42.80;;;;;;5063572;28;36261;-59
2022/04/17 09:00:49;;;;;;;9.32;4.97;;;17.10;43.10;;;;;;5063128;28;37805;-60
2022/04/17 09:03:17;;;;;;;10.50;4.90;;;17.30;42.30;;;;;;5063962;28;37736;-60
2022/04/17 09:05:45;;;;;;;11.35;5.60;;;17.50;41.70;;;;;;5063759;28;36207;-59
2022/04/17 09:08:17;;;;;;;7.15;4.68;;;17.60;41.30;;;;;;5063256;28;37644;-59
2022/04/17 09:10:58;;;;;;;10.20;5.30;;;17.70;41.50;;;;;;5063840;28;38880;-59
2022/04/17 09:13:28;;;;;;;8.48;5.10;;;17.70;40.10;;;;;;5064735;28;38050;-59
2022/04/17 09:15:58;;;;;;;7.68;4.95;;;17.80;40.30;;;;;;5063479;28;36919;-59
2022/04/17 09:18:28;;;;;;;8.32;4.63;;;17.70;40.30;;;;;;5063734;28;37783;-59
2022/04/17 09:20:56;;;;;;;8.90;5.05;;;17.70;40.70;;;;;;5064601;28;38482;-59
2022/04/17 09:23:37;;;;;;;9.43;4.60;;;17.70;41.40;;;;;;5064718;28;38538;-59
2022/04/17 09:26:08;;;;;;;7.05;4.35;;;17.80;40.50;;;;;;5064694;28;37494;-59
2022/04/17 09:28:37;;;;;;;8.02;4.75;;;17.90;40.80;;;;;;5063567;28;37944;-59
2022/04/17 09:31:11;;;;;;;8.32;5.18;;;17.90;39.90;;;;;;5063710;28;37987;-59
2022/04/17 09:33:40;;;;;;;9.32;4.90;;;18.00;40.50;;;;;;5063704;28;37809;-60
2022/04/17 09:36:08;;;;;;;9.65;4.82;;;18.10;39.50;;;;;;5064478;28;37743;-58
2022/04/17 09:38:36;;;;;;;9.85;4.38;;;18.20;39.30;;;;;;5065146;28;40297;-59
2022/04/17 09:41:13;;;;;;;8.57;5.15;;;18.20;38.90;;;;;;5064675;28;39557;-60
2022/04/17 09:43:42;;;;;;;8.00;5.05;;;18.20;38.40;;;;;;5063991;28;39069;-59
2022/04/17 09:46:10;;;;;;;8.60;4.97;;;18.30;38.70;;;;;;5062822;28;37276;-59
2022/04/17 09:48:39;;;;;;;7.60;4.78;;;18.40;38.90;;;;;;5063901;28;37981;-59
2022/04/17 09:51:24;;;;;;;6.93;4.05;;;18.50;39.00;;;;;;5063763;28;38917;-59
2022/04/17 09:53:59;;;;;;;11.25;5.15;;;18.60;37.70;;;;;;5064132;28;37624;-59
2022/04/17 09:56:40;;;;;;;7.15;4.20;;;18.70;38.50;;;;;;5063129;28;35341;-59
2022/04/17 09:59:17;;;;;;;7.75;5.03;;;18.90;37.80;;;;;;5063803;28;37477;-59
2022/04/17 10:01:50;;;;;;;10.00;4.50;;;18.90;37.10;;;;;;5063681;28;37299;-60
2022/04/17 10:04:19;;;;;;;15.32;5.38;;;18.90;36.80;;;;;;5062791;28;39172;-59
2022/04/17 10:06:48;;;;;;;9.68;4.95;;;18.90;37.20;;;;;;5063138;28;36901;-59
2022/04/17 10:09:23;;;;;;;9.07;4.53;;;18.90;36.70;;;;;;5146800;27;20542;-58
2022/04/17 10:11:56;;;;;;;8.32;4.35;;;19.00;35.60;;;;;;5127169;27;35967;-57
2022/04/17 10:14:24;;;;;;;11.68;4.93;;;19.00;35.60;;;;;;5126308;27;37347;-58
2022/04/17 10:16:55;;;;;;;8.30;3.88;;;19.20;35.70;;;;;;5127473;27;37496;-58
2022/04/17 10:19:24;;;;;;;6.63;3.33;;;19.30;34.50;;;;;;5127072;27;38353;-58
2022/04/17 10:21:52;;;;;;;7.97;4.05;;;19.10;33.10;;;;;;5127352;27;38880;-58
2022/04/17 10:24:22;;;;;;;7.65;4.20;;;19.10;34.10;;;;;;5127415;27;36715;-60
2022/04/17 10:26:51;;;;;;;8.45;4.65;;;19.10;34.00;;;;;;5127683;27;38108;-60
2022/04/17 10:29:23;;;;;;;7.60;3.78;;;19.10;34.50;;;;;;5127814;27;37988;-60
2022/04/17 10:32:08;;;;;;;7.60;4.03;;;19.20;34.30;;;;;;5129016;27;37889;-60
2022/04/17 10:35:01;;;;;;;6.80;4.05;;;19.30;34.40;;;;;;5127154;27;37819;-60
2022/04/17 10:37:52;;;;;;;6.77;3.80;;;19.30;35.10;;;;;;5127590;27;37337;-60
2022/04/17 10:40:21;;;;;;;10.73;5.35;;;19.30;35.00;;;;;;5127314;27;37698;-60
2022/04/17 10:43:02;;;;;;;7.97;4.85;;;19.30;35.30;;;;;;5127847;27;37412;-60
2022/04/17 10:45:31;;;;;;;8.75;4.68;;;19.40;34.40;;;;;;5125635;27;37418;-60
2022/04/17 10:48:10;;;;;;;9.60;4.72;;;19.30;35.20;;;;;;5126089;27;37606;-60
2022/04/17 10:50:44;;;;;;;9.00;4.07;;;19.30;34.70;;;;;;5127077;27;36177;-60
2022/04/17 10:53:29;;;;;;;6.38;3.25;;;19.40;34.00;;;;;;5126513;27;37883;-60
2022/04/17 10:56:04;;;;;;;7.45;3.90;;;19.30;31.90;;;;;;5126621;27;38097;-59
2022/04/17 10:58:40;;;;;;;6.78;4.15;;;19.30;32.50;;;;;;5128992;27;38874;-59
2022/04/17 11:01:09;;;;;;;6.75;3.75;;;19.30;33.80;;;;;;5127005;27;36785;-60
2022/04/17 11:03:37;;;;;;;6.68;4.05;;;19.30;34.20;;;;;;5120796;27;35740;-60
2022/04/17 11:06:32;;;;;;;8.60;3.75;;;19.40;34.20;;;;;;5124686;27;37354;-60
2022/04/17 11:09:10;;;;;;;7.47;3.70;;;19.40;33.40;;;;;;5124855;27;37615;-60
2022/04/17 11:11:41;;;;;;;5.97;3.00;;;19.40;32.00;;;;;;5125330;27;37397;-60
2022/04/17 11:14:11;;;;;;;7.88;4.35;;;19.30;32.20;;;;;;5125553;27;37282;-60
2022/04/17 11:16:42;;;;;;;7.60;3.85;;;19.30;31.80;;;;;;5125490;27;37155;-60
2022/04/17 11:19:11;;;;;;;7.03;3.58;;;19.20;32.00;;;;;;5119878;27;36942;-60
2022/04/17 11:21:41;;;;;;;8.57;3.50;;;19.10;32.10;;;;;;5112525;27;37127;-62
2022/04/17 11:24:08;;;;;;;7.15;3.22;;;19.10;31.80;;;;;;5112593;27;36774;-60
2022/04/17 11:27:09;;;;;;;5.47;3.20;;;19.00;32.20;;;;;;5110037;27;35655;-60
2022/04/17 11:29:43;;;;;;;8.00;4.15;;;18.90;32.60;;;;;;5110991;27;38520;-60
2022/04/17 11:32:49;;;;;;;10.20;3.63;;;18.90;32.60;;;;;;5110505;27;37971;-60
2022/04/17 11:35:20;;;;;;;7.50;3.55;;;19.00;32.40;;;;;;5110371;27;37071;-60
2022/04/17 11:37:55;;;;;;;7.05;3.92;;;18.90;33.20;;;;;;5111025;27;36738;-60
2022/04/17 11:40:25;;;;;;;8.07;3.50;;;18.90;32.80;;;;;;5111640;27;38076;-61
2022/04/17 11:42:55;;;;;;;7.10;4.00;;;19.00;32.70;;;;;;5112529;27;37941;-60
2022/04/17 11:45:25;;;;;;;7.15;4.35;;;19.00;33.60;;;;;;5112897;27;36806;-60
2022/04/17 11:47:53;;;;;;;7.13;4.50;;;19.10;34.60;;;;;;5112992;27;37434;-60
2022/04/17 11:50:23;;;;;;;7.53;4.82;;;19.10;33.90;;;;;;5112242;27;38290;-61
2022/04/17 11:52:51;;;;;;;9.82;4.88;;;19.10;34.70;;;;;;5113015;27;36695;-60
2022/04/17 11:55:25;;;;;;;8.55;4.72;;;19.10;35.40;;;;;;5113086;27;36338;-60
2022/04/17 11:57:55;;;;;;;6.63;4.40;;;19.10;35.30;;;;;;5109051;27;37217;-60
2022/04/17 12:00:22;;;;;;;8.70;4.60;;;19.00;35.10;;;;;;5112899;27;36700;-61
2022/04/17 12:02:59;;;;;;;7.63;4.60;;;19.00;35.70;;;;;;5112740;27;38094;-60
2022/04/17 12:05:27;;;;;;;8.02;5.15;;;19.00;36.00;;;;;;5112340;27;37968;-60
2022/04/17 12:08:01;;;;;;;7.05;4.43;;;18.90;36.20;;;;;;5111400;27;35510;-58
2022/04/17 12:10:29;;;;;;;8.23;4.75;;;19.00;35.90;;;;;;5111146;27;37501;-57
2022/04/17 12:12:58;;;;;;;7.80;3.85;;;19.00;35.70;;;;;;5112948;27;36682;-60
2022/04/17 12:15:25;;;;;;;7.15;3.78;;;18.90;36.50;;;;;;5113003;27;38493;-60
2022/04/17 12:18:00;;;;;;;7.25;3.75;;;18.90;36.70;;;;;;5111858;27;37894;-60
2022/04/17 12:20:28;;;;;;;6.68;3.85;;;18.90;36.90;;;;;;5112974;27;37590;-60
2022/04/17 12:22:56;;;;;;;8.40;3.95;;;18.80;36.70;;;;;;5111914;27;37424;-60
2022/04/17 12:25:25;;;;;;;6.47;3.75;;;18.70;36.60;;;;;;5114386;27;36621;-61
2022/04/17 12:27:54;;;;;;;7.70;4.22;;;18.60;35.80;;;;;;5111924;27;37270;-61
2022/04/17 12:30:25;;;;;;;10.40;4.22;;;18.50;35.80;;;;;;5111416;27;38580;-61
2022/04/17 12:32:55;;;;;;;6.70;3.50;;;18.40;35.40;;;;;;5111814;27;37302;-61
2022/04/17 12:35:25;;;;;;;6.22;3.45;;;18.30;34.80;;;;;;5111758;27;37110;-61
2022/04/17 12:38:04;;;;;;;8.85;3.88;;;18.20;35.70;;;;;;5112452;27;35761;-62
2022/04/17 12:40:35;;;;;;;7.35;3.50;;;18.10;35.60;;;;;;5113345;27;37590;-60
2022/04/17 12:43:17;;;;;;;6.13;3.40;;;18.10;35.70;;;;;;5112695;27;36128;-61
2022/04/17 12:46:03;;;;;;;5.63;3.08;;;18.00;35.20;;;;;;5109371;27;35799;-60
2022/04/17 12:48:35;;;;;;;6.18;3.58;;;17.80;35.80;;;;;;5111470;27;36313;-62
2022/04/17 12:51:04;;;;;;;7.60;4.23;;;17.80;36.80;;;;;;5113437;27;37424;-61
2022/04/17 12:53:36;;;;;;;6.53;3.70;;;17.70;35.90;;;;;;5112776;27;37904;-60
2022/04/17 12:56:04;;;;;;;6.50;3.55;;;17.70;36.30;;;;;;5111897;27;37808;-60
2022/04/17 12:58:48;;;;;;;6.28;3.70;;;17.70;37.10;;;;;;5112191;27;35876;-60
2022/04/17 13:01:20;;;;;;;;;;;17.70;37.00;;;;;;5112205;27;36442;-61
2022/04/17 13:03:48;;;;;;;8.23;4.28;;;17.70;35.30;;;;;;5111785;27;37337;-60
2022/04/17 13:06:20;;;;;;;7.63;3.97;;;17.60;36.60;;;;;;5112139;27;35601;-61
2022/04/17 13:09:05;;;;;;;7.15;4.15;;;17.60;36.20;;;;;;5111877;27;37080;-60
2022/04/17 13:11:34;;;;;;;7.57;3.55;;;17.60;35.30;;;;;;5110637;27;36974;-60
2022/04/17 13:14:03;;;;;;;8.27;4.43;;;17.60;37.50;;;;;;5112036;27;35996;-60
2022/04/17 13:16:33;;;;;;;7.80;4.40;;;17.50;37.20;;;;;;5111452;27;38014;-60